createdAt,value
2023-12-08T00:00:01.639Z,19.48
2023-12-08T00:02:30.119Z,19.15
2023-12-08T00:04:58.479Z,19.67
2023-12-08T00:07:27.812Z,19.95
2023-12-08T00:09:56.342Z,19.92
2023-12-08T00:12:24.660Z,20.83
2023-12-08T00:14:54.519Z,20.90
2023-12-08T00:17:22.888Z,21.75
2023-12-08T00:19:53.060Z,22.45
2023-12-08T00:22:22.027Z,20.95
2023-12-08T00:24:50.393Z,20.67
2023-12-08T00:27:18.723Z,21.25
2023-12-08T00:29:47.065Z,18.92
2023-12-08T00:32:17.563Z,17.88
2023-12-08T00:34:47.499Z,20.42
2023-12-08T00:37:15.905Z,20.25
2023-12-08T00:39:44.236Z,19.23
2023-12-08T00:42:12.600Z,20.25
2023-12-08T00:44:40.958Z,21.63
2023-12-08T00:47:09.318Z,19.60
2023-12-08T00:49:39.032Z,20.38
2023-12-08T00:52:07.693Z,19.25
2023-12-08T00:54:36.031Z,21.17
2023-12-08T00:57:04.816Z,17.90
2023-12-08T00:59:33.213Z,19.38
2023-12-08T01:02:02.501Z,21.63
2023-12-08T01:04:30.771Z,20.85
2023-12-08T01:07:00.567Z,20.77
2023-12-08T01:09:28.956Z,18.85
2023-12-08T01:11:57.350Z,18.50
2023-12-08T01:14:25.830Z,21.45
2023-12-08T01:16:54.241Z,19.90
2023-12-08T01:19:22.610Z,21.35
2023-12-08T01:21:51.130Z,21.02
2023-12-08T01:24:21.116Z,21.38
2023-12-08T01:26:49.559Z,21.08
2023-12-08T01:29:18.109Z,18.73
2023-12-08T01:31:46.887Z,21.00
2023-12-08T01:34:15.637Z,21.05
2023-12-08T01:36:44.650Z,22.20
2023-12-08T01:39:13.983Z,21.48
2023-12-08T01:41:44.282Z,20.15
2023-12-08T01:44:12.687Z,18.40
2023-12-08T01:46:40.993Z,21.77
2023-12-08T01:49:09.456Z,20.60
2023-12-08T01:51:37.841Z,22.57
2023-12-08T01:54:06.578Z,22.67
2023-12-08T01:56:35.075Z,21.77
2023-12-08T01:59:04.860Z,22.00
2023-12-08T02:01:33.196Z,22.23
2023-12-08T02:04:01.971Z,20.80
2023-12-08T02:06:30.349Z,21.08
2023-12-08T02:08:58.704Z,21.27
2023-12-08T02:11:27.080Z,22.88
2023-12-08T02:13:55.449Z,20.80
2023-12-08T02:16:30.170Z,22.60
2023-12-08T02:18:58.745Z,21.02
2023-12-08T02:21:27.238Z,23.50
2023-12-08T02:23:56.972Z,21.63
2023-12-08T02:26:25.353Z,23.92
2023-12-08T02:28:53.665Z,24.25
2023-12-08T02:31:26.576Z,23.40
2023-12-08T02:33:55.119Z,23.33
2023-12-08T02:36:23.666Z,23.45
2023-12-08T02:38:52.481Z,23.20
2023-12-08T02:41:22.292Z,22.05
2023-12-08T02:43:50.665Z,22.27
2023-12-08T02:46:19.040Z,21.90
2023-12-08T02:48:54.347Z,21.95
2023-12-08T02:51:23.814Z,20.88
2023-12-08T02:53:53.809Z,22.80
2023-12-08T02:56:23.641Z,21.30
2023-12-08T02:58:51.994Z,20.87
2023-12-08T03:01:20.401Z,22.80
2023-12-08T03:03:48.833Z,22.45
2023-12-08T03:06:17.239Z,21.25
2023-12-08T03:08:45.628Z,22.10
2023-12-08T03:11:14.005Z,22.05
2023-12-08T03:13:43.657Z,21.77
2023-12-08T03:16:11.966Z,23.10
2023-12-08T03:18:40.363Z,22.45
2023-12-08T03:21:09.028Z,22.67
2023-12-08T03:23:37.415Z,21.88
2023-12-08T03:26:06.544Z,22.15
2023-12-08T03:28:34.881Z,19.77
2023-12-08T03:31:04.733Z,22.33
2023-12-08T03:33:33.220Z,21.33
2023-12-08T03:36:02.092Z,21.67
2023-12-08T03:38:30.501Z,21.67
2023-12-08T03:40:58.894Z,21.92
2023-12-08T03:43:27.229Z,20.60
2023-12-08T03:45:55.553Z,20.95
2023-12-08T03:48:25.431Z,22.23
2023-12-08T03:50:53.925Z,23.38
2023-12-08T03:53:22.263Z,23.20
2023-12-08T03:55:50.743Z,20.67
2023-12-08T03:58:19.086Z,22.13
2023-12-08T04:00:47.498Z,21.67
2023-12-08T04:03:15.866Z,22.00
2023-12-08T04:05:45.798Z,21.80
2023-12-08T04:08:14.188Z,22.40
2023-12-08T04:10:42.599Z,19.77
2023-12-08T04:13:10.915Z,21.90
2023-12-08T04:15:39.981Z,22.20
2023-12-08T04:18:09.040Z,21.95
2023-12-08T04:20:37.600Z,20.95
2023-12-08T04:23:07.530Z,21.70
2023-12-08T04:25:35.914Z,20.65
2023-12-08T04:28:05.399Z,20.45
2023-12-08T04:30:33.762Z,19.80
2023-12-08T04:33:02.137Z,20.02
2023-12-08T04:35:30.548Z,21.63
2023-12-08T04:37:58.833Z,20.42
2023-12-08T04:40:28.528Z,20.58
2023-12-08T04:42:56.935Z,20.90
2023-12-08T04:45:25.333Z,22.30
2023-12-08T04:47:53.819Z,22.17
2023-12-08T04:50:22.318Z,20.83
2023-12-08T04:52:50.628Z,22.33
2023-12-08T04:55:19.003Z,20.77
2023-12-08T04:57:48.785Z,21.00
2023-12-08T05:00:18.888Z,22.10
2023-12-08T05:02:49.087Z,21.70
2023-12-08T05:05:17.600Z,22.80
2023-12-08T05:07:46.009Z,22.45
2023-12-08T05:10:14.508Z,22.90
2023-12-08T05:12:42.849Z,22.40
2023-12-08T05:15:13.188Z,20.40
2023-12-08T05:17:42.059Z,22.60
2023-12-08T05:20:13.862Z,19.92
2023-12-08T05:22:42.148Z,23.08
2023-12-08T05:25:10.834Z,22.17
2023-12-08T05:27:39.205Z,20.42
2023-12-08T05:30:09.741Z,19.13
2023-12-08T05:32:39.716Z,22.00
2023-12-08T05:35:08.723Z,23.60
2023-12-08T05:37:36.986Z,22.58
2023-12-08T05:40:08.069Z,22.40
2023-12-08T05:42:36.400Z,19.55
2023-12-08T05:45:05.600Z,20.95
2023-12-08T05:47:34.416Z,19.55
2023-12-08T05:50:05.808Z,25.02
2023-12-08T05:52:34.362Z,23.48
2023-12-08T05:55:02.865Z,21.05
2023-12-08T05:57:31.817Z,22.58
2023-12-08T06:00:00.480Z,21.07
2023-12-08T06:02:28.961Z,19.60
2023-12-08T06:04:57.315Z,20.20
2023-12-08T06:07:27.523Z,19.60
2023-12-08T06:09:56.080Z,20.98
2023-12-08T06:12:24.491Z,20.55
2023-12-08T06:14:52.883Z,19.65
2023-12-08T06:17:21.208Z,19.60
2023-12-08T06:19:49.855Z,21.83
2023-12-08T06:22:18.169Z,19.40
2023-12-08T06:24:47.863Z,20.65
2023-12-08T06:27:16.718Z,20.90
2023-12-08T06:29:45.224Z,20.90
2023-12-08T06:32:13.635Z,19.92
2023-12-08T06:34:42.008Z,23.98
2023-12-08T06:37:10.340Z,22.38
2023-12-08T06:39:40.564Z,21.90
2023-12-08T06:42:10.471Z,20.83
2023-12-08T06:44:38.885Z,22.58
2023-12-08T06:47:09.363Z,22.98
2023-12-08T06:49:37.910Z,24.23
2023-12-08T06:52:07.110Z,28.33
2023-12-08T06:54:35.482Z,31.90
2023-12-08T06:57:03.924Z,29.73
2023-12-08T06:59:33.642Z,29.00
2023-12-08T07:02:01.937Z,26.33
2023-12-08T07:04:30.279Z,26.85
2023-12-08T07:06:58.650Z,27.08
2023-12-08T07:09:27.458Z,29.92
2023-12-08T07:11:56.597Z,28.02
2023-12-08T07:14:25.144Z,30.65
2023-12-08T07:16:55.099Z,31.33
2023-12-08T07:19:23.571Z,27.25
2023-12-08T07:21:51.973Z,25.63
2023-12-08T07:24:20.267Z,25.48
2023-12-08T07:26:48.543Z,25.67
2023-12-08T07:29:16.948Z,24.85
2023-12-08T07:31:45.248Z,25.23
2023-12-08T07:34:15.065Z,24.90
2023-12-08T07:36:43.466Z,23.92
2023-12-08T07:39:11.965Z,22.88
2023-12-08T07:41:40.293Z,25.13
2023-12-08T07:44:08.613Z,23.77
2023-12-08T07:46:37.062Z,24.80
2023-12-08T07:49:05.544Z,23.10
2023-12-08T07:51:35.776Z,24.67
2023-12-08T07:54:04.913Z,25.08
2023-12-08T07:56:34.690Z,23.27
2023-12-08T07:59:03.116Z,22.65
2023-12-08T08:01:32.752Z,22.25
2023-12-08T08:04:01.183Z,22.88
2023-12-08T08:06:29.744Z,22.10
2023-12-08T08:08:59.533Z,23.48
2023-12-08T08:11:27.822Z,24.40
2023-12-08T08:13:56.169Z,23.90
2023-12-08T08:16:24.511Z,22.50
2023-12-08T08:18:52.952Z,22.67
2023-12-08T08:21:21.378Z,24.33
2023-12-08T08:23:51.625Z,21.90
2023-12-08T08:26:21.320Z,23.25
2023-12-08T08:28:49.708Z,23.23
2023-12-08T08:31:19.246Z,21.95
2023-12-08T08:33:47.780Z,21.70
2023-12-08T08:36:16.267Z,24.67
2023-12-08T08:38:44.665Z,23.95
2023-12-08T08:41:14.670Z,22.13
2023-12-08T08:43:45.519Z,22.30
2023-12-08T08:46:13.871Z,22.67
2023-12-08T08:48:42.360Z,21.50
2023-12-08T08:51:11.591Z,20.70
2023-12-08T08:53:39.994Z,20.13
2023-12-08T08:56:09.081Z,20.65
2023-12-08T08:58:37.427Z,21.00
2023-12-08T09:01:07.593Z,21.25
2023-12-08T09:03:36.109Z,19.75
2023-12-08T09:06:05.445Z,20.08
2023-12-08T09:08:33.987Z,19.63
2023-12-08T09:11:02.340Z,19.48
2023-12-08T09:13:32.820Z,20.40
2023-12-08T09:16:01.131Z,19.80
2023-12-08T09:18:29.861Z,18.67
2023-12-08T09:20:59.553Z,17.15
2023-12-08T09:23:27.925Z,18.30
2023-12-08T09:25:56.361Z,16.83
2023-12-08T09:28:24.901Z,17.45
2023-12-08T09:30:53.161Z,17.20
2023-12-08T09:33:24.760Z,17.40
2023-12-08T09:35:56.313Z,17.45
2023-12-08T09:38:31.493Z,17.97
2023-12-08T09:41:03.115Z,16.20
2023-12-08T09:43:36.849Z,16.67
2023-12-08T09:46:05.487Z,17.30
2023-12-08T09:48:33.939Z,17.15
2023-12-08T09:51:04.678Z,17.90
2023-12-08T09:53:33.048Z,16.40
2023-12-08T09:56:01.306Z,17.83
2023-12-08T09:58:31.108Z,17.65
2023-12-08T10:00:59.562Z,16.98
2023-12-08T10:03:28.036Z,17.75
2023-12-08T10:05:57.047Z,18.25
2023-12-08T10:08:26.942Z,19.25
2023-12-08T10:10:55.282Z,16.93
2023-12-08T10:13:23.579Z,17.40
2023-12-08T10:15:52.141Z,17.20
2023-12-08T10:18:27.300Z,17.45
2023-12-08T10:21:15.504Z,17.30
2023-12-08T10:23:46.489Z,16.10
2023-12-08T10:26:15.163Z,16.33
2023-12-08T10:28:44.072Z,17.25
2023-12-08T10:31:12.388Z,18.25
2023-12-08T10:33:42.914Z,15.73
2023-12-08T10:36:11.961Z,16.97
2023-12-08T10:38:41.143Z,17.90
2023-12-08T10:41:10.974Z,17.17
2023-12-08T10:43:40.674Z,17.13
2023-12-08T10:46:09.478Z,15.77
2023-12-08T10:48:38.872Z,16.98
2023-12-08T10:51:07.695Z,17.70
2023-12-08T10:53:36.041Z,16.70
2023-12-08T10:56:08.884Z,13.90
2023-12-08T10:58:42.467Z,15.30
2023-12-08T11:01:13.805Z,16.47
2023-12-08T11:03:51.872Z,16.47
2023-12-08T11:06:29.785Z,16.33
2023-12-08T11:08:59.675Z,16.23
2023-12-08T11:11:28.524Z,16.43
2023-12-08T11:14:03.743Z,14.53
2023-12-08T11:16:40.368Z,15.50
2023-12-08T11:19:09.041Z,14.50
2023-12-08T11:21:37.671Z,14.40
2023-12-08T11:24:09.217Z,13.10
2023-12-08T11:26:41.941Z,13.80
2023-12-08T11:29:16.995Z,13.88
2023-12-08T11:31:49.088Z,13.50
2023-12-08T11:34:20.292Z,13.33
2023-12-08T11:36:48.783Z,12.20
2023-12-08T11:39:45.855Z,13.57
2023-12-08T11:42:17.407Z,13.83
2023-12-08T11:44:48.080Z,13.30
2023-12-08T11:47:17.907Z,15.23
2023-12-08T11:49:48.231Z,13.00
2023-12-08T11:52:19.570Z,15.37
2023-12-08T11:55:10.432Z,12.10
2023-12-08T11:57:42.719Z,12.90
2023-12-08T12:00:14.433Z,12.80
2023-12-08T12:02:44.178Z,14.00
2023-12-08T12:05:12.736Z,13.40
2023-12-08T12:07:41.292Z,12.15
2023-12-08T12:10:12.119Z,13.55
2023-12-08T12:12:43.778Z,13.35
2023-12-08T12:15:13.673Z,14.13
2023-12-08T12:17:43.047Z,13.27
2023-12-08T12:20:12.441Z,13.55
2023-12-08T12:22:41.654Z,12.70
2023-12-08T12:25:11.673Z,13.80
2023-12-08T12:27:43.356Z,14.40
2023-12-08T12:30:14.211Z,13.88
2023-12-08T12:32:42.725Z,14.20
2023-12-08T12:35:11.906Z,14.77
2023-12-08T12:37:40.265Z,12.97
2023-12-08T12:40:10.179Z,14.20
2023-12-08T12:42:45.635Z,12.63
2023-12-08T12:45:28.550Z,15.43
2023-12-08T12:48:05.806Z,15.55
2023-12-08T12:50:46.481Z,14.60
2023-12-08T12:53:15.576Z,13.60
2023-12-08T12:55:44.074Z,15.17
2023-12-08T12:58:20.825Z,14.15
2023-12-08T13:00:51.046Z,16.15
2023-12-08T13:03:22.125Z,14.03
2023-12-08T13:05:53.556Z,13.93
2023-12-08T13:08:22.235Z,14.50
2023-12-08T13:10:51.064Z,15.00
2023-12-08T13:13:19.495Z,14.23
2023-12-08T13:15:48.260Z,13.75
2023-12-08T13:18:18.541Z,15.37
2023-12-08T13:20:47.160Z,16.02
2023-12-08T13:23:16.026Z,13.20
2023-12-08T13:25:44.372Z,15.70
2023-12-08T13:28:12.676Z,15.50
2023-12-08T13:30:40.972Z,14.38
2023-12-08T13:33:10.088Z,15.30
2023-12-08T13:35:39.955Z,15.27
2023-12-08T13:38:08.365Z,15.85
2023-12-08T13:40:36.719Z,15.27
2023-12-08T13:43:05.008Z,13.80
2023-12-08T13:45:33.692Z,14.25
2023-12-08T13:48:02.328Z,14.07
2023-12-08T13:50:31.246Z,15.15
2023-12-08T13:53:01.433Z,16.30
2023-12-08T13:55:29.775Z,14.25
2023-12-08T13:57:58.569Z,14.20
2023-12-08T14:00:28.026Z,15.30
2023-12-08T14:02:56.839Z,16.03
2023-12-08T14:05:25.222Z,15.52
2023-12-08T14:07:53.685Z,14.68
2023-12-08T14:10:23.654Z,16.23
2023-12-08T14:12:51.967Z,16.00
2023-12-08T14:15:20.410Z,16.17
2023-12-08T14:17:50.162Z,16.67
2023-12-08T14:20:18.549Z,15.80
2023-12-08T14:22:48.341Z,14.75
2023-12-08T14:25:17.055Z,16.05
2023-12-08T14:27:46.953Z,15.85
2023-12-08T14:30:15.603Z,17.42
2023-12-08T14:32:44.147Z,14.57
2023-12-08T14:35:19.367Z,15.52
2023-12-08T14:37:55.001Z,14.85
2023-12-08T14:40:24.808Z,16.50
2023-12-08T14:42:54.903Z,16.10
2023-12-08T14:45:23.419Z,15.32
2023-12-08T14:47:52.013Z,15.55
2023-12-08T14:50:20.718Z,14.77
2023-12-08T14:52:49.159Z,14.75
2023-12-08T14:55:18.740Z,15.18
2023-12-08T14:57:47.078Z,15.75
2023-12-08T15:00:17.817Z,15.75
2023-12-08T15:02:46.511Z,14.43
2023-12-08T15:05:15.241Z,15.75
2023-12-08T15:07:43.850Z,15.93
2023-12-08T15:10:12.329Z,15.77
2023-12-08T15:12:40.829Z,14.95
2023-12-08T15:15:10.494Z,15.10
2023-12-08T15:17:40.641Z,15.05
2023-12-08T15:20:10.959Z,15.50
2023-12-08T15:22:40.827Z,15.48
2023-12-08T15:25:10.169Z,14.07
2023-12-08T15:27:38.577Z,13.65
2023-12-08T15:30:08.600Z,14.30
2023-12-08T15:32:37.422Z,13.80
2023-12-08T15:35:08.415Z,15.05
2023-12-08T15:37:36.861Z,14.27
2023-12-08T15:40:05.939Z,16.02
2023-12-08T15:42:34.332Z,15.25
2023-12-08T15:45:04.151Z,15.50
2023-12-08T15:47:34.461Z,15.88
2023-12-08T15:50:04.534Z,15.18
2023-12-08T15:52:34.311Z,15.07
2023-12-08T15:55:02.546Z,15.05
2023-12-08T15:57:30.874Z,16.02
2023-12-08T15:59:59.598Z,16.92
2023-12-08T16:02:28.248Z,17.00
2023-12-08T16:04:56.721Z,15.65
2023-12-08T16:07:27.063Z,14.63
2023-12-08T16:09:56.981Z,14.10
2023-12-08T16:12:25.479Z,15.88
2023-12-08T16:14:54.038Z,17.40
2023-12-08T16:17:22.582Z,18.27
2023-12-08T16:19:50.954Z,16.70
2023-12-08T16:22:19.459Z,16.00
2023-12-08T16:24:48.367Z,17.23
2023-12-08T16:27:18.070Z,16.07
2023-12-08T16:29:46.648Z,15.30
2023-12-08T16:32:15.140Z,15.97
2023-12-08T16:34:43.595Z,18.42
2023-12-08T16:37:11.107Z,15.30
2023-12-08T16:39:39.619Z,15.68
2023-12-08T16:42:08.113Z,15.68
2023-12-08T16:44:37.869Z,15.60
2023-12-08T16:47:06.877Z,15.70
2023-12-08T16:49:35.773Z,15.17
2023-12-08T16:52:04.436Z,17.67
2023-12-08T16:54:32.891Z,15.40
2023-12-08T16:57:01.439Z,16.47
2023-12-08T16:59:30.777Z,16.13
2023-12-08T17:02:00.440Z,15.07
2023-12-08T17:04:28.760Z,16.10
2023-12-08T17:06:59.987Z,16.13
2023-12-08T17:09:28.834Z,15.55
2023-12-08T17:11:57.444Z,16.37
2023-12-08T17:14:25.846Z,17.07
2023-12-08T17:16:54.260Z,17.53
2023-12-08T17:19:24.034Z,17.77
2023-12-08T17:21:52.295Z,17.95
2023-12-08T17:24:21.803Z,17.20
2023-12-08T17:26:53.493Z,17.43
2023-12-08T17:29:21.937Z,16.50
2023-12-08T17:31:50.261Z,15.88
2023-12-08T17:34:22.592Z,16.80
2023-12-08T17:36:53.176Z,15.50
2023-12-08T17:39:21.687Z,16.27
2023-12-08T17:41:50.391Z,16.00
2023-12-08T17:44:18.736Z,16.60
2023-12-08T17:46:47.093Z,16.27
2023-12-08T17:49:15.610Z,16.27
2023-12-08T17:51:44.063Z,15.63
2023-12-08T17:54:14.011Z,15.13
2023-12-08T17:56:42.457Z,16.30
2023-12-08T17:59:10.808Z,16.20
2023-12-08T18:01:39.110Z,16.33
2023-12-08T18:04:07.419Z,15.73
2023-12-08T18:06:35.866Z,16.08
2023-12-08T18:09:09.442Z,17.40
2023-12-08T18:11:39.246Z,17.35
2023-12-08T18:14:07.546Z,16.08
2023-12-08T18:16:45.115Z,17.67
2023-12-08T18:19:15.280Z,16.80
2023-12-08T18:21:43.667Z,18.75
2023-12-08T18:24:13.742Z,16.60
2023-12-08T18:26:43.840Z,18.58
2023-12-08T18:29:11.643Z,17.85
2023-12-08T18:31:40.161Z,18.67
2023-12-08T18:34:09.393Z,16.75
2023-12-08T18:36:38.473Z,17.73
2023-12-08T18:39:07.925Z,17.48
2023-12-08T18:41:36.620Z,17.35
2023-12-08T18:44:06.818Z,17.90
2023-12-08T18:46:35.305Z,17.67
2023-12-08T18:49:04.800Z,17.75
2023-12-08T18:51:34.540Z,22.02
2023-12-08T18:54:03.103Z,18.20
2023-12-08T18:56:31.507Z,17.40
2023-12-08T18:58:59.819Z,17.55
2023-12-08T19:01:29.616Z,17.83
2023-12-08T19:03:58.059Z,17.48
2023-12-08T19:06:26.520Z,16.60
2023-12-08T19:08:55.125Z,17.13
2023-12-08T19:11:23.729Z,17.30
2023-12-08T19:13:52.864Z,17.80
2023-12-08T19:16:21.340Z,17.10
2023-12-08T19:18:51.413Z,19.15
2023-12-08T19:21:19.941Z,16.50
2023-12-08T19:23:48.371Z,17.25
2023-12-08T19:26:16.842Z,18.70
2023-12-08T19:28:45.840Z,17.13
2023-12-08T19:31:14.252Z,16.70
2023-12-08T19:33:43.127Z,17.40
2023-12-08T19:36:16.053Z,17.98
2023-12-08T19:38:45.502Z,18.30
2023-12-08T19:41:13.846Z,17.85
2023-12-08T19:43:42.237Z,16.30
2023-12-08T19:46:10.662Z,17.38
2023-12-08T19:48:39.231Z,16.65
2023-12-08T19:51:07.944Z,19.38
2023-12-08T19:53:37.865Z,17.55
2023-12-08T19:56:07.388Z,15.93
2023-12-08T19:58:35.678Z,18.75
2023-12-08T20:01:06.256Z,17.02
2023-12-08T20:03:34.837Z,17.42
2023-12-08T20:06:03.332Z,17.60
2023-12-08T20:08:31.696Z,17.92
2023-12-08T20:11:02.165Z,17.25
2023-12-08T20:13:30.579Z,18.08
2023-12-08T20:15:58.940Z,18.70
2023-12-08T20:18:28.604Z,17.42
2023-12-08T20:20:57.108Z,18.83
2023-12-08T20:23:26.115Z,17.92
2023-12-08T20:25:54.539Z,19.73
2023-12-08T20:28:24.294Z,18.88
2023-12-08T20:30:52.644Z,19.00
2023-12-08T20:33:21.012Z,18.23
2023-12-08T20:35:49.425Z,19.08
2023-12-08T20:38:17.865Z,19.45
2023-12-08T20:40:48.225Z,18.38
2023-12-08T20:45:48.631Z,19.40
2023-12-08T20:48:17.145Z,18.15
2023-12-08T20:50:45.566Z,19.92
2023-12-08T20:53:14.900Z,19.92
2023-12-08T20:55:43.380Z,18.15
2023-12-08T20:58:12.143Z,18.35
2023-12-08T21:00:40.710Z,20.48
2023-12-08T21:03:10.598Z,19.83
2023-12-08T21:05:38.996Z,20.63
2023-12-08T21:08:07.771Z,18.52
2023-12-08T21:10:36.111Z,19.75
2023-12-08T21:13:04.611Z,19.05
2023-12-08T21:15:32.940Z,19.05
2023-12-08T21:18:01.336Z,19.73
2023-12-08T21:20:31.082Z,19.55
2023-12-08T21:22:59.371Z,20.67
2023-12-08T21:25:27.676Z,20.08
2023-12-08T21:27:56.341Z,19.88
2023-12-08T21:30:24.987Z,21.45
2023-12-08T21:32:53.516Z,20.52
2023-12-08T21:35:22.253Z,19.90
2023-12-08T21:37:51.937Z,20.08
2023-12-08T21:40:21.993Z,20.23
2023-12-08T21:42:52.965Z,21.88
2023-12-08T21:45:22.687Z,21.33
2023-12-08T21:47:51.516Z,20.53
2023-12-08T21:50:20.063Z,20.03
2023-12-08T21:52:51.020Z,20.33
2023-12-08T21:55:22.202Z,19.92
2023-12-08T21:57:50.855Z,20.00
2023-12-08T22:00:19.825Z,20.08
2023-12-08T22:02:48.329Z,18.77
2023-12-08T22:05:16.897Z,20.20
2023-12-08T22:07:45.407Z,19.85
2023-12-08T22:10:13.936Z,20.55
2023-12-08T22:12:43.651Z,19.50
2023-12-08T22:15:12.261Z,21.43
2023-12-08T22:17:40.636Z,19.70
2023-12-08T22:20:10.862Z,19.42
2023-12-08T22:22:40.426Z,21.90
2023-12-08T22:25:11.476Z,22.38
2023-12-08T22:27:40.003Z,21.17
2023-12-08T22:30:11.392Z,20.23
2023-12-08T22:32:39.923Z,19.75
2023-12-08T22:35:08.947Z,20.92
2023-12-08T22:37:38.066Z,21.52
2023-12-08T22:40:08.570Z,21.42
2023-12-08T22:42:36.943Z,21.30
2023-12-08T22:45:06.696Z,19.83
2023-12-08T22:47:36.447Z,21.40
2023-12-08T22:50:05.546Z,20.50
2023-12-08T22:52:34.060Z,20.87
2023-12-08T22:55:02.567Z,20.13
2023-12-08T22:57:31.002Z,22.25
2023-12-08T22:59:59.422Z,21.90
2023-12-08T23:02:27.966Z,19.92
2023-12-08T23:04:58.141Z,22.08
2023-12-08T23:07:26.616Z,21.38
2023-12-08T23:09:55.012Z,20.40
2023-12-08T23:12:23.522Z,20.43
2023-12-08T23:14:51.905Z,21.40
2023-12-08T23:17:21.340Z,20.48
2023-12-08T23:19:49.686Z,21.47
2023-12-08T23:22:19.398Z,22.05
2023-12-08T23:24:47.761Z,21.97
2023-12-08T23:27:16.252Z,22.27
2023-12-08T23:29:44.674Z,21.30
2023-12-08T23:32:13.047Z,21.35
2023-12-08T23:34:41.462Z,20.30
2023-12-08T23:37:10.031Z,20.00
2023-12-08T23:39:40.557Z,19.70
2023-12-08T23:42:09.132Z,20.20
2023-12-08T23:44:37.595Z,20.88
2023-12-08T23:47:06.277Z,23.10
2023-12-08T23:49:34.716Z,22.20
2023-12-08T23:52:03.181Z,21.40
2023-12-08T23:54:31.653Z,21.15
2023-12-08T23:57:01.575Z,21.53
2023-12-08T23:59:29.932Z,21.70
